Tacoma Narrows Airport
KTIW : now visible

Airfield :











YOU CAN JOIN US ON...

 
LOGIN :

Register | Disclaimer

   EN    FR    IT 

 









Legend :    VFR   Marginal VFR   IFR   Intensive IFR   Very Intensive IFR
Visi :
Ceiling :
>= 8 km
>= 3000ft
5 to 8 km
1000 to 3000 ft
1500m to 5 km
500 to 1000 ft
800 to 1500m
200 to 500 ft
< 800m
< 200 ft
Symbols :   Thunderstorms  Fog  Heavy snow  Heavy precipitations  Wind > 20 kt






- Airport Elevation : 294 ft


KTIW - Tacoma Narrows

CURRENT METAR :
  • 172053Z 17005KT 10SM SCT025 07/01 A3041 RMK AO2 SLP301 T00670011 50000

EXPIRED METARs :
  • 171953Z 21004KT 10SM SCT014 SCT027 06/02 A3042 RMK AO2 SLP304 T00610017
  • 171853Z 15003KT 10SM SCT014 SCT027 04/02 A3042 RMK AO2 SLP305 T00440017

TAF N/A



MET'MAP, your aeronautical weather chart ! - Copyright ORBIFLY December 2007 - Disclaimer

ORBIFLY MET'MAP TEAM :

Programming & Development : Alexandra Zaïnal
Concept & original design : Baudouin d'Aumeries
Assistance for programming : Marc-Olivier Méhu
Technical & hardware support : Manuel Goepfert

Contact : metmap@orbifly.com




SOURCES & CREDITS :

   NOAA       Earth
Advisory